Time;durP1;ratioP1;P1;durP2;ratioP2;P2;SDS_P1;SDS_P2;PMS_P1;PMS_P2;Temp;Humidity;BMP_temperature;BMP_pressure;BME280_temperature;BME280_humidity;BME280_pressure;Samples;Min_cycle;Max_cycle;Signal;HPM_P1;HPM_P2
2022/08/06 00:00:07;;;;;;;3.88;2.28;;;23.20;80.90;;;;;;6986763;28;20417;-87
2022/08/06 00:03:29;;;;;;;4.47;2.30;;;23.10;81.20;;;;;;7001665;28;20429;-87
2022/08/06 00:06:53;;;;;;;4.53;2.00;;;23.10;81.10;;;;;;6976016;28;20444;-85
2022/08/06 00:10:16;;;;;;;6.10;2.10;;;22.80;81.30;;;;;;6975114;28;20795;-86
2022/08/06 00:13:38;;;;;;;4.65;2.13;;;22.70;82.20;;;;;;6973531;28;20433;-85
2022/08/06 00:17:01;;;;;;;4.40;2.30;;;22.80;81.80;;;;;;6974560;28;20435;-86
2022/08/06 00:20:23;;;;;;;6.22;2.50;;;22.90;81.50;;;;;;6973891;28;20464;-84
2022/08/06 00:23:47;;;;;;;4.20;2.28;;;22.90;80.70;;;;;;6973115;28;20930;-84
2022/08/06 00:27:09;;;;;;;4.25;2.28;;;22.80;81.00;;;;;;6963600;28;20421;-83
2022/08/06 00:30:31;;;;;;;4.22;2.35;;;22.60;81.20;;;;;;6973936;28;20437;-84
2022/08/06 00:33:55;;;;;;;4.10;2.25;;;22.70;80.60;;;;;;6977476;28;20456;-84
2022/08/06 00:37:19;;;;;;;4.37;2.20;;;22.70;80.60;;;;;;6976523;28;20429;-84
2022/08/06 00:40:43;;;;;;;4.47;2.15;;;22.70;80.10;;;;;;6974041;28;20937;-84
2022/08/06 00:44:07;;;;;;;4.05;2.30;;;22.70;80.50;;;;;;6973891;28;20433;-85
2022/08/06 00:47:29;;;;;;;4.85;2.00;;;22.60;80.10;;;;;;6973179;28;20484;-85
2022/08/06 00:50:51;;;;;;;5.07;2.05;;;22.60;80.00;;;;;;6972578;28;20426;-84
2022/08/06 00:54:13;;;;;;;4.03;1.90;;;22.70;79.90;;;;;;6972594;28;20468;-84
2022/08/06 00:57:36;;;;;;;4.50;2.03;;;22.70;79.20;;;;;;6971908;28;20429;-83
2022/08/06 01:00:58;;;;;;;4.05;2.00;;;22.50;78.90;;;;;;6972108;28;20898;-85
2022/08/06 01:04:20;;;;;;;3.25;1.70;;;22.40;78.80;;;;;;6972445;28;20448;-86
2022/08/06 01:07:43;;;;;;;4.43;1.77;;;22.50;77.30;;;;;;6973728;28;20503;-86
2022/08/06 01:11:05;;;;;;;4.60;1.73;;;22.60;77.40;;;;;;6973390;28;20512;-85
2022/08/06 01:14:29;;;;;;;3.80;1.90;;;22.60;76.60;;;;;;6970245;28;20472;-85
2022/08/06 01:17:59;;;;;;;3.70;1.70;;;22.50;77.20;;;;;;6972300;28;21017;-85
2022/08/06 01:21:45;;;;;;;4.07;1.70;;;22.50;76.40;;;;;;6972751;28;20436;-85
2022/08/06 01:25:30;;;;;;;3.88;1.65;;;22.20;76.90;;;;;;6972657;28;20791;-85
2022/08/06 01:29:00;;;;;;;3.92;1.60;;;22.30;75.90;;;;;;6967619;28;20467;-85
2022/08/06 01:32:31;;;;;;;4.50;1.55;;;22.40;74.80;;;;;;6971301;28;20437;-85
2022/08/06 01:36:00;;;;;;;4.10;1.48;;;22.40;74.10;;;;;;6971379;28;20436;-83
2022/08/06 01:39:26;;;;;;;4.10;1.50;;;22.40;73.70;;;;;;6970311;28;20470;-85
2022/08/06 01:42:51;;;;;;;3.90;1.50;;;22.30;74.10;;;;;;6971721;28;20486;-84
2022/08/06 01:46:16;;;;;;;4.10;1.50;;;22.20;74.70;;;;;;6974201;28;20449;-84
2022/08/06 01:49:44;;;;;;;4.43;1.58;;;22.10;75.20;;;;;;6979019;28;20441;-83
2022/08/06 01:53:10;;;;;;;3.63;1.50;;;22.10;76.00;;;;;;6974218;28;20433;-84
2022/08/06 01:56:36;;;;;;;3.88;1.58;;;22.30;75.70;;;;;;6976190;28;20903;-84
2022/08/06 02:00:00;;;;;;;4.68;1.70;;;22.30;76.00;;;;;;6970776;28;20447;-86
2022/08/06 02:03:29;;;;;;;3.70;1.75;;;22.30;76.20;;;;;;6972817;28;20432;-85
2022/08/06 02:06:53;;;;;;;4.47;1.70;;;22.30;75.90;;;;;;6972822;28;20784;-85
2022/08/06 02:10:18;;;;;;;4.32;1.60;;;22.30;76.00;;;;;;6972938;28;20433;-86
2022/08/06 02:13:43;;;;;;;3.75;1.60;;;22.40;76.30;;;;;;6972686;28;20922;-86
2022/08/06 02:17:06;;;;;;;3.97;1.70;;;22.20;76.30;;;;;;6972145;28;20433;-84
2022/08/06 02:20:34;;;;;;;3.42;1.70;;;22.20;77.20;;;;;;6973477;28;20437;-84
2022/08/06 02:24:01;;;;;;;4.40;1.80;;;22.10;76.90;;;;;;6974063;28;20500;-85
2022/08/06 02:27:24;;;;;;;4.25;1.60;;;22.20;76.20;;;;;;6977329;28;20441;-86
2022/08/06 02:30:50;;;;;;;3.90;1.40;;;22.20;75.60;;;;;;6979509;28;20421;-86
2022/08/06 02:34:13;;;;;;;3.47;1.50;;;22.10;74.80;;;;;;6975330;28;20432;-85
2022/08/06 02:37:42;;;;;;;4.20;1.60;;;21.90;75.50;;;;;;6971704;28;20799;-86
2022/08/06 02:41:14;;;;;;;3.30;1.40;;;21.70;75.40;;;;;;6971538;28;20427;-88
2022/08/06 02:44:44;;;;;;;2.92;1.33;;;21.80;75.50;;;;;;6971822;28;20929;-86
2022/08/06 02:48:15;;;;;;;3.50;1.43;;;21.80;75.10;;;;;;6971533;28;20499;-86
2022/08/06 02:51:43;;;;;;;4.70;1.50;;;21.80;75.00;;;;;;6973020;28;20417;-84
2022/08/06 02:55:12;;;;;;;3.85;1.50;;;21.70;74.80;;;;;;6969973;28;20478;-84
2022/08/06 02:58:40;;;;;;;4.43;1.50;;;21.70;75.10;;;;;;6970544;28;20437;-86
2022/08/06 03:02:03;;;;;;;3.45;1.50;;;21.70;75.00;;;;;;6970814;28;20436;-85
2022/08/06 03:05:28;;;;;;;4.68;1.40;;;21.60;75.40;;;;;;6971287;28;20472;-86
2022/08/06 03:08:54;;;;;;;4.22;1.50;;;21.60;75.10;;;;;;6970045;28;20441;-85
2022/08/06 03:12:20;;;;;;;3.42;1.35;;;21.50;75.80;;;;;;6969685;28;20514;-86
2022/08/06 03:15:44;;;;;;;4.10;1.50;;;21.60;75.30;;;;;;6956441;28;20834;-86
2022/08/06 03:19:06;;;;;;;4.55;1.45;;;21.50;75.80;;;;;;6972171;28;20907;-86
2022/08/06 03:22:31;;;;;;;4.45;1.40;;;21.50;75.70;;;;;;6975633;28;20425;-90
2022/08/06 03:25:54;;;;;;;2.92;1.30;;;21.50;76.00;;;;;;6976776;28;20428;-84
2022/08/06 03:29:18;;;;;;;3.65;1.52;;;21.50;76.20;;;;;;6984670;28;20445;-83
2022/08/06 03:32:41;;;;;;;3.13;1.33;;;21.60;76.10;;;;;;6983616;28;20429;-84
2022/08/06 03:36:05;;;;;;;4.32;1.38;;;21.60;75.70;;;;;;6984801;28;20440;-83
2022/08/06 03:39:30;;;;;;;4.55;1.40;;;21.60;75.90;;;;;;6993432;28;20436;-84
2022/08/06 03:42:52;;;;;;;3.78;1.60;;;21.40;76.60;;;;;;6982707;28;20425;-86
2022/08/06 03:46:23;;;;;;;4.15;1.30;;;21.50;76.20;;;;;;6976138;28;20463;-85
2022/08/06 03:49:53;;;;;;;4.37;1.40;;;21.50;76.20;;;;;;6980137;28;20445;-86
2022/08/06 03:53:21;;;;;;;3.85;1.70;;;21.30;76.40;;;;;;6980237;28;20437;-85
2022/08/06 03:56:45;;;;;;;4.60;2.03;;;21.30;76.80;;;;;;6969620;28;20439;-84
2022/08/06 04:00:11;;;;;;;4.05;1.73;;;21.30;76.60;;;;;;6964084;28;20516;-84
2022/08/06 04:03:36;;;;;;;4.15;1.52;;;21.30;76.70;;;;;;6983278;28;20431;-86
2022/08/06 04:07:01;;;;;;;4.85;1.70;;;21.30;76.80;;;;;;6975280;28;20425;-85
2022/08/06 04:10:29;;;;;;;4.27;1.37;;;21.30;77.00;;;;;;6975633;28;20473;-84
2022/08/06 04:13:51;;;;;;;4.18;1.50;;;21.20;77.20;;;;;;6975344;28;20429;-86
2022/08/06 04:17:15;;;;;;;4.32;1.70;;;21.10;77.50;;;;;;6973949;28;20768;-84
2022/08/06 04:20:41;;;;;;;4.43;1.70;;;20.90;77.60;;;;;;6976155;28;20440;-84
2022/08/06 04:24:04;;;;;;;4.25;1.50;;;21.10;77.90;;;;;;6974465;28;20464;-85
2022/08/06 04:27:28;;;;;;;4.23;1.70;;;21.00;78.30;;;;;;6966732;28;20425;-84
2022/08/06 04:30:51;;;;;;;4.53;1.65;;;21.20;77.80;;;;;;6975472;28;20444;-87
2022/08/06 04:34:18;;;;;;;3.88;1.48;;;21.20;77.50;;;;;;6975614;28;20432;-83
2022/08/06 04:37:42;;;;;;;3.92;1.50;;;21.20;77.30;;;;;;6972744;28;20490;-84
2022/08/06 04:41:06;;;;;;;3.88;1.42;;;21.10;77.70;;;;;;6972497;28;20426;-84
2022/08/06 04:44:29;;;;;;;4.27;1.37;;;21.20;77.80;;;;;;6973980;28;20492;-84
2022/08/06 04:47:53;;;;;;;3.50;1.40;;;21.20;77.60;;;;;;6972739;28;20914;-84
2022/08/06 04:51:16;;;;;;;3.38;1.45;;;21.20;77.70;;;;;;6964284;28;20442;-84
2022/08/06 04:54:41;;;;;;;3.97;1.50;;;21.20;77.40;;;;;;6972463;28;20463;-84
2022/08/06 04:58:06;;;;;;;5.00;1.60;;;21.10;77.70;;;;;;6974199;28;20510;-83
2022/08/06 05:01:28;;;;;;;4.13;1.40;;;21.10;77.50;;;;;;6973231;28;20433;-86
2022/08/06 05:04:55;;;;;;;3.63;1.50;;;21.10;77.80;;;;;;6973395;28;20903;-81
2022/08/06 05:08:19;;;;;;;3.97;1.45;;;21.10;79.10;;;;;;6972414;28;20903;-80
2022/08/06 05:11:49;;;;;;;3.22;1.30;;;21.20;78.50;;;;;;6974680;28;20484;-90
2022/08/06 05:15:17;;;;;;;4.25;1.58;;;21.20;77.80;;;;;;6974614;28;20432;-84
2022/08/06 05:18:44;;;;;;;3.45;1.33;;;21.20;77.30;;;;;;6967540;28;20461;-78
2022/08/06 05:22:09;;;;;;;4.47;1.50;;;21.00;78.00;;;;;;6967797;28;20441;-79
2022/08/06 05:25:33;;;;;;;4.35;2.13;;;21.20;78.10;;;;;;6969402;28;20440;-79
2022/08/06 05:28:57;;;;;;;4.40;2.00;;;21.20;77.80;;;;;;6922401;28;20473;-78
2022/08/06 05:32:19;;;;;;;4.82;1.70;;;21.20;78.00;;;;;;6943676;28;20435;-78
2022/08/06 05:35:41;;;;;;;4.47;1.50;;;21.20;78.00;;;;;;6915380;28;20757;-79
2022/08/06 05:39:03;;;;;;;4.20;1.60;;;21.20;78.20;;;;;;6896167;28;20457;-79
2022/08/06 05:42:25;;;;;;;3.67;1.52;;;21.10;78.70;;;;;;6904443;28;20435;-78
2022/08/06 05:45:52;;;;;;;4.35;1.50;;;21.10;79.40;;;;;;6915740;28;20437;-79
2022/08/06 05:49:20;;;;;;;3.40;1.45;;;21.20;78.80;;;;;;6911072;28;20454;-77
2022/08/06 05:52:51;;;;;;;3.50;1.35;;;21.20;79.20;;;;;;6886235;28;20438;-78
2022/08/06 05:56:18;;;;;;;3.97;1.80;;;21.30;78.80;;;;;;6887901;28;20442;-76
2022/08/06 05:59:49;;;;;;;4.38;1.60;;;21.30;78.30;;;;;;6876101;28;20501;-76
2022/08/06 06:03:15;;;;;;;3.63;1.65;;;21.30;78.30;;;;;;6896377;28;20461;-78
2022/08/06 06:06:37;;;;;;;3.37;1.50;;;21.10;78.80;;;;;;6907226;28;20524;-78
2022/08/06 06:09:59;;;;;;;5.82;1.60;;;21.10;79.90;;;;;;6887729;28;20442;-74
2022/08/06 06:13:24;;;;;;;4.35;1.50;;;21.20;79.20;;;;;;6900157;28;20492;-74
2022/08/06 06:17:09;;;;;;;4.15;1.60;;;21.30;79.70;;;;;;6889028;28;20436;-75
2022/08/06 06:20:53;;;;;;;5.38;1.70;;;21.30;78.80;;;;;;6892294;28;20441;-74
2022/08/06 06:24:22;;;;;;;4.00;1.80;;;21.20;79.80;;;;;;6913158;28;20439;-76
2022/08/06 06:27:55;;;;;;;4.13;1.55;;;21.30;79.70;;;;;;6897311;28;20440;-74
2022/08/06 06:31:28;;;;;;;4.25;1.55;;;21.40;80.00;;;;;;6914746;28;20479;-76
2022/08/06 06:34:58;;;;;;;5.10;1.80;;;21.40;79.40;;;;;;6914484;28;20464;-73
2022/08/06 06:38:35;;;;;;;4.10;1.60;;;21.50;79.50;;;;;;6914025;28;20447;-77
2022/08/06 06:42:06;;;;;;;2.85;1.50;;;21.60;79.10;;;;;;6914331;28;20467;-75
2022/08/06 06:45:37;;;;;;;4.10;1.65;;;21.40;79.40;;;;;;6885972;28;20437;-75
2022/08/06 06:49:08;;;;;;;4.18;1.70;;;21.40;80.20;;;;;;6912299;28;20906;-75
2022/08/06 06:52:36;;;;;;;5.03;1.70;;;21.40;79.70;;;;;;6898542;28;21002;-75
2022/08/06 06:56:01;;;;;;;4.97;1.50;;;21.40;79.60;;;;;;6886385;28;20466;-75
2022/08/06 06:59:31;;;;;;;3.77;1.50;;;21.50;79.50;;;;;;6888164;28;20438;-75
2022/08/06 07:02:54;;;;;;;5.53;1.80;;;21.50;79.40;;;;;;6907928;28;20933;-74
2022/08/06 07:06:18;;;;;;;4.03;1.80;;;21.50;79.30;;;;;;6899183;28;20439;-74
2022/08/06 07:09:43;;;;;;;3.92;1.80;;;21.30;80.10;;;;;;6900542;28;20446;-75
2022/08/06 07:13:08;;;;;;;5.55;1.83;;;21.50;79.80;;;;;;6887037;28;20496;-83
2022/08/06 07:16:33;;;;;;;5.85;2.08;;;21.50;79.50;;;;;;6893806;28;20439;-83
2022/08/06 07:20:01;;;;;;;5.88;1.90;;;21.60;79.30;;;;;;6914992;28;20436;-81
2022/08/06 07:23:24;;;;;;;4.57;2.00;;;21.70;79.60;;;;;;6906938;28;20438;-84
2022/08/06 07:26:47;;;;;;;3.95;1.90;;;21.80;79.50;;;;;;6885840;28;20473;-74
2022/08/06 07:30:13;;;;;;;5.15;1.80;;;21.80;80.10;;;;;;6886461;28;20446;-78
2022/08/06 07:33:37;;;;;;;5.75;1.83;;;21.90;79.70;;;;;;6886459;28;20431;-75
2022/08/06 07:37:00;;;;;;;4.75;1.90;;;22.10;79.30;;;;;;6887576;28;20483;-74
2022/08/06 07:40:27;;;;;;;4.47;1.70;;;22.20;78.00;;;;;;6895295;28;20935;-74
2022/08/06 07:43:55;;;;;;;4.00;1.77;;;22.10;78.70;;;;;;6897434;28;20425;-74
2022/08/06 07:47:23;;;;;;;5.22;1.90;;;22.40;78.90;;;;;;6893663;28;20791;-78
2022/08/06 07:50:50;;;;;;;4.00;1.70;;;22.30;77.90;;;;;;6912881;28;20953;-77
2022/08/06 07:54:13;;;;;;;5.47;1.80;;;22.30;78.60;;;;;;6912692;28;20475;-76
2022/08/06 07:57:35;;;;;;;6.70;2.00;;;22.20;78.50;;;;;;6913491;28;20428;-78
2022/08/06 08:00:57;;;;;;;4.65;2.05;;;22.40;78.20;;;;;;6912310;28;20437;-76
2022/08/06 08:08:00;;;;;;;5.32;1.98;;;22.10;78.70;;;;;;6919062;28;20464;-76
2022/08/06 08:11:24;;;;;;;6.17;2.10;;;21.90;78.90;;;;;;6910633;28;20560;-74
2022/08/06 08:14:48;;;;;;;4.60;2.00;;;22.10;79.40;;;;;;6912633;28;20440;-75
2022/08/06 08:18:10;;;;;;;5.50;2.08;;;22.00;78.40;;;;;;6929700;28;20591;-78
2022/08/06 08:21:34;;;;;;;4.93;2.30;;;22.00;78.70;;;;;;6924058;28;20432;-77
2022/08/06 08:24:56;;;;;;;5.57;2.20;;;22.20;78.20;;;;;;6917685;28;20429;-75
2022/08/06 08:28:18;;;;;;;6.15;2.25;;;22.30;78.80;;;;;;6915561;28;20567;-77
2022/08/06 08:31:40;;;;;;;5.28;2.50;;;22.20;77.40;;;;;;6916987;28;20810;-76
2022/08/06 08:35:03;;;;;;;6.28;2.90;;;22.30;77.00;;;;;;6918057;28;20428;-77
2022/08/06 08:38:26;;;;;;;5.13;1.98;;;22.40;78.10;;;;;;6915961;28;20931;-75
2022/08/06 08:41:56;;;;;;;3.65;1.80;;;22.30;75.40;;;;;;6901845;28;20536;-76
2022/08/06 08:45:18;;;;;;;4.80;1.90;;;22.50;76.00;;;;;;6912656;28;20794;-83
2022/08/06 08:48:41;;;;;;;4.90;2.00;;;22.50;76.20;;;;;;6895275;28;20466;-79
2022/08/06 08:52:08;;;;;;;4.93;2.00;;;22.40;75.70;;;;;;6890465;28;20434;-81
2022/08/06 08:55:32;;;;;;;5.35;2.00;;;22.40;75.30;;;;;;6894696;28;20457;-81
2022/08/06 08:58:55;;;;;;;3.53;1.75;;;22.40;75.40;;;;;;6891352;28;20473;-79
2022/08/06 09:02:17;;;;;;;5.38;1.90;;;22.60;75.50;;;;;;6890713;28;20437;-78
2022/08/06 09:05:40;;;;;;;4.63;1.90;;;22.50;75.40;;;;;;6890350;28;20430;-79
2022/08/06 09:09:04;;;;;;;4.50;1.97;;;22.50;74.70;;;;;;6890475;28;20433;-79
2022/08/06 09:12:28;;;;;;;4.40;2.10;;;22.40;74.00;;;;;;6890083;28;20501;-81
2022/08/06 09:15:50;;;;;;;5.60;2.20;;;22.50;75.10;;;;;;6890003;28;20987;-79
2022/08/06 09:19:13;;;;;;;4.65;1.85;;;22.10;75.20;;;;;;6889716;28;20435;-78
2022/08/06 09:22:35;;;;;;;4.03;1.75;;;22.30;75.30;;;;;;6889369;28;20437;-78
2022/08/06 09:25:57;;;;;;;5.18;1.90;;;22.60;75.10;;;;;;6889522;28;20434;-78
2022/08/06 09:29:23;;;;;;;4.75;1.90;;;22.80;74.20;;;;;;6889817;28;20876;-80
2022/08/06 09:32:47;;;;;;;4.35;1.90;;;22.70;72.20;;;;;;6889101;28;20434;-79
2022/08/06 09:36:14;;;;;;;4.50;1.70;;;22.70;72.80;;;;;;6889252;28;20430;-80
2022/08/06 09:39:40;;;;;;;4.70;1.75;;;23.00;72.20;;;;;;6889230;28;20824;-78
2022/08/06 09:43:02;;;;;;;4.18;1.70;;;23.10;72.40;;;;;;6889467;28;20430;-78
2022/08/06 09:46:43;;;;;;;5.60;1.63;;;23.20;71.50;;;;;;6888898;28;20512;-78
2022/08/06 09:50:06;;;;;;;7.10;3.85;;;23.20;71.30;;;;;;6888440;28;20494;-78
2022/08/06 09:53:29;;;;;;;5.20;1.90;;;23.30;71.20;;;;;;6889863;28;20437;-80
2022/08/06 09:56:58;;;;;;;6.68;3.17;;;23.40;70.70;;;;;;6889104;28;20975;-80
2022/08/06 10:00:27;;;;;;;5.03;1.55;;;23.60;70.70;;;;;;6889010;28;21139;-79
2022/08/06 10:03:53;;;;;;;7.00;4.05;;;23.40;70.50;;;;;;6889034;28;20430;-79
2022/08/06 10:07:16;;;;;;;5.10;2.10;;;23.50;71.10;;;;;;6888753;28;20453;-80
2022/08/06 10:10:45;;;;;;;4.10;1.80;;;23.70;70.10;;;;;;6906110;28;20521;-79
2022/08/06 10:14:21;;;;;;;4.15;1.90;;;23.70;69.40;;;;;;6888929;28;20824;-79
2022/08/06 10:17:46;;;;;;;3.87;1.50;;;23.70;67.60;;;;;;6888381;28;20435;-79
2022/08/06 10:21:12;;;;;;;5.28;1.60;;;23.50;67.00;;;;;;6888309;28;20446;-78
2022/08/06 10:24:38;;;;;;;3.85;1.40;;;23.80;67.60;;;;;;6887856;28;20430;-78
2022/08/06 10:28:02;;;;;;;4.07;1.50;;;23.80;67.40;;;;;;6888370;28;20434;-79
2022/08/06 10:31:24;;;;;;;4.70;1.40;;;24.00;66.90;;;;;;6889108;28;20747;-80
2022/08/06 10:34:50;;;;;;;4.55;2.58;;;24.10;66.50;;;;;;6892300;28;20445;-80
2022/08/06 10:38:18;;;;;;;4.53;1.60;;;24.00;65.80;;;;;;6888696;28;20431;-79
2022/08/06 10:41:41;;;;;;;3.83;1.40;;;24.00;66.50;;;;;;6866814;28;20435;-81
2022/08/06 10:45:05;;;;;;;4.05;1.40;;;24.00;66.40;;;;;;6860514;28;20436;-79
2022/08/06 10:48:28;;;;;;;4.03;1.48;;;24.00;66.70;;;;;;6876229;28;20438;-85
2022/08/06 10:51:51;;;;;;;4.30;1.40;;;24.10;65.70;;;;;;6887928;28;20446;-78
2022/08/06 10:55:15;;;;;;;3.85;1.30;;;23.90;65.70;;;;;;6884462;28;20470;-80
2022/08/06 10:58:38;;;;;;;4.03;1.37;;;24.00;66.90;;;;;;6876780;28;20461;-78
2022/08/06 11:02:10;;;;;;;4.13;1.37;;;24.20;65.60;;;;;;6883183;28;20442;-81
2022/08/06 11:05:38;;;;;;;3.77;1.30;;;24.30;65.10;;;;;;6883882;28;20481;-81
2022/08/06 11:09:18;;;;;;;4.40;1.45;;;24.10;64.70;;;;;;6882727;28;20449;-81
2022/08/06 11:12:51;;;;;;;4.40;1.50;;;24.00;64.40;;;;;;6883852;28;20458;-82
2022/08/06 11:16:24;;;;;;;4.53;1.50;;;24.20;65.20;;;;;;6883302;28;20473;-81
2022/08/06 11:19:49;;;;;;;4.32;1.25;;;24.40;64.90;;;;;;6882856;28;20446;-81
2022/08/06 11:23:32;;;;;;;4.25;1.45;;;24.60;64.70;;;;;;6889165;28;20434;-83
2022/08/06 11:26:54;;;;;;;4.68;2.25;;;24.60;64.10;;;;;;6887620;28;20430;-83
2022/08/06 11:30:18;;;;;;;5.20;2.53;;;24.30;64.60;;;;;;6885015;28;20816;-82
2022/08/06 11:34:01;;;;;;;3.75;1.50;;;24.40;63.80;;;;;;6893126;28;20514;-83
2022/08/06 11:37:45;;;;;;;3.60;1.40;;;24.50;63.90;;;;;;6858580;28;20440;-82
2022/08/06 11:41:10;;;;;;;8.07;3.87;;;24.60;63.20;;;;;;6887151;28;20473;-82
2022/08/06 11:44:35;;;;;;;4.80;1.40;;;24.60;62.60;;;;;;6883157;28;20864;-83
2022/08/06 11:48:08;;;;;;;3.93;1.50;;;24.60;64.00;;;;;;6896211;28;20436;-83
2022/08/06 11:51:37;;;;;;;3.97;1.40;;;24.60;62.10;;;;;;6910399;28;20534;-83
2022/08/06 11:55:06;;;;;;;4.15;1.40;;;24.60;63.20;;;;;;6913039;28;21220;-83
2022/08/06 11:58:29;;;;;;;3.97;1.20;;;24.80;62.80;;;;;;6911384;28;20448;-84
2022/08/06 12:01:52;;;;;;;4.95;1.30;;;25.00;63.40;;;;;;6904687;28;20437;-85
2022/08/06 12:05:38;;;;;;;4.13;1.43;;;25.00;62.60;;;;;;6925770;28;20455;-87
2022/08/06 12:09:18;;;;;;;3.40;1.35;;;24.80;62.20;;;;;;6921499;28;20440;-86
2022/08/06 12:12:43;;;;;;;3.80;1.40;;;25.10;61.20;;;;;;6917795;28;20531;-87
2022/08/06 12:16:05;;;;;;;3.05;1.38;;;24.80;62.90;;;;;;6918942;28;20932;-85
2022/08/06 12:19:28;;;;;;;3.28;1.50;;;25.10;61.70;;;;;;6898610;28;20470;-86
2022/08/06 12:22:52;;;;;;;3.45;1.40;;;25.40;60.70;;;;;;6895142;28;20434;-85
2022/08/06 12:26:15;;;;;;;4.00;1.40;;;25.50;60.60;;;;;;6918217;28;20438;-84
2022/08/06 12:29:38;;;;;;;4.03;1.30;;;25.50;61.30;;;;;;6917011;28;20442;-84
2022/08/06 12:33:01;;;;;;;2.40;1.20;;;25.80;59.30;;;;;;6918596;28;20704;-85
2022/08/06 12:36:29;;;;;;;4.55;1.40;;;25.80;60.00;;;;;;6916543;28;20982;-85
2022/08/06 12:43:34;;;;;;;3.80;1.40;;;25.90;59.60;;;;;;6920629;28;20446;-84
2022/08/06 12:47:12;;;;;;;3.03;1.20;;;26.00;59.40;;;;;;6920072;28;20442;-84
2022/08/06 12:50:37;;;;;;;3.33;1.25;;;26.30;59.00;;;;;;6895606;28;20888;-84
2022/08/06 12:54:02;;;;;;;4.75;1.33;;;26.10;59.10;;;;;;6893305;28;20497;-82
2022/08/06 12:57:30;;;;;;;3.17;1.47;;;26.30;58.80;;;;;;6892320;28;20494;-83
2022/08/06 13:00:57;;;;;;;3.20;1.40;;;26.50;58.10;;;;;;6908928;28;20437;-83
2022/08/06 13:04:21;;;;;;;4.70;1.20;;;26.70;57.80;;;;;;6894100;28;20430;-82
2022/08/06 13:07:44;;;;;;;3.58;1.30;;;26.80;58.20;;;;;;6890689;28;20445;-82
2022/08/06 13:11:06;;;;;;;3.03;1.40;;;26.50;58.10;;;;;;6887054;28;20963;-80
2022/08/06 13:14:29;;;;;;;2.53;1.20;;;26.70;58.40;;;;;;6888859;28;20442;-82
2022/08/06 13:18:08;;;;;;;2.97;1.20;;;26.50;57.20;;;;;;6887698;28;20438;-82
2022/08/06 13:21:30;;;;;;;3.53;1.20;;;26.70;57.60;;;;;;6885619;28;20804;-79
2022/08/06 13:25:10;;;;;;;4.47;1.30;;;26.20;57.30;;;;;;6883411;28;20446;-77
2022/08/06 13:28:32;;;;;;;4.90;1.20;;;26.30;58.40;;;;;;6886039;28;20446;-79
2022/08/06 13:32:06;;;;;;;4.80;1.30;;;26.30;57.60;;;;;;6885658;28;20501;-79
2022/08/06 13:35:28;;;;;;;3.80;1.30;;;26.50;57.10;;;;;;6883564;28;20955;-79
2022/08/06 13:38:50;;;;;;;3.75;1.30;;;26.90;57.40;;;;;;6884978;28;20892;-79
2022/08/06 13:42:13;;;;;;;3.97;1.27;;;27.10;57.00;;;;;;6885269;28;20439;-79
2022/08/06 13:45:35;;;;;;;3.33;1.40;;;27.00;56.90;;;;;;6882577;28;20442;-79
2022/08/06 13:49:01;;;;;;;3.40;1.30;;;26.70;57.10;;;;;;6885104;28;20477;-78
2022/08/06 13:52:23;;;;;;;3.85;1.30;;;26.30;57.10;;;;;;6884462;28;20490;-83
2022/08/06 13:55:46;;;;;;;3.30;1.30;;;26.70;57.70;;;;;;6884717;28;20438;-82
2022/08/06 13:59:08;;;;;;;3.47;1.40;;;27.10;57.30;;;;;;6885810;28;20481;-82
2022/08/06 14:02:30;;;;;;;3.10;1.20;;;27.40;56.20;;;;;;6884364;28;20912;-80
2022/08/06 14:05:54;;;;;;;3.38;1.30;;;27.50;55.70;;;;;;6883994;28;20773;-80
2022/08/06 14:09:19;;;;;;;4.88;1.25;;;27.60;56.40;;;;;;6883976;28;20473;-80
2022/08/06 14:12:41;;;;;;;2.80;1.20;;;27.80;55.70;;;;;;6884374;28;20485;-79
2022/08/06 14:16:03;;;;;;;4.38;1.40;;;27.70;54.90;;;;;;6884557;28;20469;-79
2022/08/06 14:19:26;;;;;;;3.90;1.48;;;27.60;56.00;;;;;;6885289;28;20430;-79
2022/08/06 14:22:49;;;;;;;3.15;1.30;;;27.80;56.10;;;;;;6888149;28;20588;-80
2022/08/06 14:26:12;;;;;;;4.60;1.40;;;27.80;55.40;;;;;;6885665;28;20552;-80
2022/08/06 14:29:34;;;;;;;3.53;1.20;;;27.60;55.60;;;;;;6884715;28;20765;-80
2022/08/06 14:32:56;;;;;;;3.38;1.25;;;27.70;54.80;;;;;;6884131;28;20446;-80
2022/08/06 14:36:19;;;;;;;4.47;1.30;;;27.60;55.30;;;;;;6857315;28;20467;-80
2022/08/06 14:39:42;;;;;;;4.72;1.40;;;27.60;55.50;;;;;;6861030;28;20485;-78
2022/08/06 14:46:43;;;;;;;4.53;1.55;;;27.70;55.10;;;;;;6883167;28;20624;-80
2022/08/06 14:50:07;;;;;;;3.47;1.50;;;27.20;55.50;;;;;;6881848;28;20471;-81
2022/08/06 14:53:29;;;;;;;4.32;1.70;;;27.30;56.10;;;;;;6884568;28;20476;-83
2022/08/06 14:56:52;;;;;;;5.15;2.58;;;26.90;56.50;;;;;;6884899;28;20446;-83
2022/08/06 15:00:16;;;;;;;4.65;1.50;;;27.20;55.90;;;;;;6883644;28;20948;-80
2022/08/06 15:03:38;;;;;;;4.60;1.40;;;27.10;55.60;;;;;;6884369;28;20470;-81
2022/08/06 15:07:00;;;;;;;5.35;1.70;;;27.00;55.30;;;;;;6884123;28;20766;-82
2022/08/06 15:10:22;;;;;;;3.20;1.40;;;26.70;56.70;;;;;;6886444;28;20449;-85
2022/08/06 15:13:46;;;;;;;4.35;1.60;;;26.70;56.00;;;;;;6883698;28;20442;-76
2022/08/06 15:17:08;;;;;;;4.45;1.45;;;26.80;55.90;;;;;;6871979;28;20434;-83
2022/08/06 15:20:30;;;;;;;4.60;1.40;;;26.70;56.60;;;;;;6884478;28;20453;-81
2022/08/06 15:23:53;;;;;;;4.75;1.50;;;27.20;56.20;;;;;;6868778;28;20434;-83
2022/08/06 15:27:19;;;;;;;4.07;1.35;;;27.40;55.80;;;;;;6886471;28;20466;-82
2022/08/06 15:30:43;;;;;;;3.55;1.40;;;27.70;55.60;;;;;;6886488;28;20490;-82
2022/08/06 15:34:05;;;;;;;3.93;1.43;;;27.80;55.20;;;;;;6886436;28;20804;-84
2022/08/06 15:37:27;;;;;;;4.57;1.80;;;28.00;55.10;;;;;;6886540;28;20442;-82
2022/08/06 15:40:49;;;;;;;4.10;1.40;;;28.30;55.10;;;;;;6886306;28;20474;-82
2022/08/06 15:44:11;;;;;;;5.30;2.08;;;28.60;54.60;;;;;;6886994;28;20439;-82
2022/08/06 15:47:34;;;;;;;3.28;1.40;;;28.60;54.30;;;;;;6896710;28;20437;-82
2022/08/06 15:50:58;;;;;;;5.03;1.53;;;27.90;54.70;;;;;;6914156;28;20436;-83
2022/08/06 15:54:20;;;;;;;4.00;1.50;;;28.30;54.40;;;;;;6913998;28;20850;-85
2022/08/06 15:57:42;;;;;;;4.55;1.50;;;28.40;54.50;;;;;;6913638;28;20521;-82
2022/08/06 16:01:04;;;;;;;5.53;1.20;;;28.60;53.20;;;;;;6912423;28;20475;-84
2022/08/06 16:04:28;;;;;;;3.53;1.37;;;28.60;52.70;;;;;;6918171;28;20441;-85
2022/08/06 16:07:51;;;;;;;3.92;1.50;;;28.50;53.50;;;;;;6926442;28;20429;-83
2022/08/06 16:11:13;;;;;;;4.15;1.50;;;28.70;52.70;;;;;;6924540;28;20447;-84
2022/08/06 16:14:36;;;;;;;3.97;1.50;;;28.80;51.70;;;;;;6919066;28;20424;-83
2022/08/06 16:17:58;;;;;;;4.47;1.60;;;28.50;51.30;;;;;;6905328;28;20786;-81
2022/08/06 16:21:22;;;;;;;3.17;1.30;;;28.30;52.40;;;;;;6910391;28;20440;-85
2022/08/06 16:24:44;;;;;;;6.95;3.85;;;28.20;53.20;;;;;;6913363;28;20439;-76
2022/08/06 16:28:07;;;;;;;5.15;2.05;;;28.20;56.70;;;;;;6908761;28;20432;-84
2022/08/06 16:31:29;;;;;;;3.65;1.35;;;28.30;54.30;;;;;;6888167;28;20472;-80
2022/08/06 16:34:57;;;;;;;3.45;1.50;;;28.70;52.50;;;;;;6884283;28;20493;-80
2022/08/06 16:38:21;;;;;;;5.45;2.47;;;28.90;52.20;;;;;;6883211;28;20437;-78
2022/08/06 16:41:44;;;;;;;3.97;1.52;;;28.80;51.90;;;;;;6881905;28;20951;-83
2022/08/06 16:45:08;;;;;;;3.85;1.30;;;28.80;52.10;;;;;;6888170;28;20442;-77
2022/08/06 16:48:30;;;;;;;3.97;1.30;;;28.80;52.70;;;;;;6887097;28;20434;-83
2022/08/06 16:51:52;;;;;;;4.65;1.38;;;28.80;52.30;;;;;;6889560;28;20476;-86
2022/08/06 16:55:16;;;;;;;3.03;1.20;;;28.50;53.00;;;;;;6915648;28;20422;-84
2022/08/06 16:58:38;;;;;;;4.40;1.30;;;28.60;52.60;;;;;;6907143;28;20438;-83
2022/08/06 17:05:40;;;;;;;3.63;1.30;;;29.10;52.60;;;;;;6896280;28;20434;-82
2022/08/06 17:09:06;;;;;;;4.07;1.33;;;29.40;51.50;;;;;;6890081;28;20434;-82
2022/08/06 17:12:30;;;;;;;3.60;1.23;;;29.60;51.20;;;;;;6886903;28;20450;-82
2022/08/06 17:15:52;;;;;;;3.58;1.30;;;29.10;50.90;;;;;;6887132;28;20493;-80
2022/08/06 17:19:14;;;;;;;3.80;1.35;;;29.30;51.80;;;;;;6891200;28;20449;-81
2022/08/06 17:22:36;;;;;;;4.82;1.30;;;29.50;50.90;;;;;;6892408;28;20910;-80
2022/08/06 17:25:58;;;;;;;6.65;1.50;;;29.00;51.40;;;;;;6888781;28;20446;-84
2022/08/06 17:29:21;;;;;;;4.10;1.40;;;28.70;51.70;;;;;;6889137;28;20494;-80
2022/08/06 17:32:46;;;;;;;3.65;1.23;;;28.30;52.70;;;;;;6886818;28;20453;-83
2022/08/06 17:36:10;;;;;;;3.35;1.30;;;28.40;52.10;;;;;;6885828;28;20975;-81
2022/08/06 17:39:32;;;;;;;3.30;1.30;;;28.50;51.70;;;;;;6886414;28;20434;-82
2022/08/06 17:42:55;;;;;;;3.63;1.20;;;28.40;51.30;;;;;;6884096;28;20442;-81
2022/08/06 17:46:18;;;;;;;3.90;1.27;;;28.10;52.60;;;;;;6884975;28;20441;-82
2022/08/06 17:49:42;;;;;;;4.00;1.50;;;28.40;51.90;;;;;;6894872;28;20470;-81
2022/08/06 17:53:04;;;;;;;5.27;1.57;;;28.00;52.50;;;;;;6884026;28;20984;-80
2022/08/06 17:56:26;;;;;;;4.33;1.70;;;28.40;52.20;;;;;;6889256;28;20916;-81
2022/08/06 17:59:49;;;;;;;3.60;1.33;;;28.20;52.80;;;;;;6884390;28;20466;-81
2022/08/06 18:03:12;;;;;;;4.18;1.30;;;27.90;52.20;;;;;;6883161;28;20434;-81